Time;durP1;ratioP1;P1;durP2;ratioP2;P2;SDS_P1;SDS_P2;PMS_P1;PMS_P2;Temp;Humidity;BMP_temperature;BMP_pressure;BME280_temperature;BME280_humidity;BME280_pressure;Samples;Min_cycle;Max_cycle;Signal;HPM_P1;HPM_P2
2020/12/11 00:04:55;;;;;;;74.22;30.45;;;;;;;0.10;100.00;98345.80;4339058;81;44078;-84
2020/12/11 00:10:57;;;;;;;79.60;31.15;;;;;;;-0.19;100.00;98361.95;4358320;80;43001;-85
2020/12/11 00:17:00;;;;;;;68.90;28.07;;;;;;;-0.51;100.00;98355.92;4308520;81;44108;-84
2020/12/11 00:23:04;;;;;;;70.40;28.60;;;;;;;-0.60;100.00;98357.78;4303956;82;44120;-83
2020/12/11 00:29:06;;;;;;;67.37;28.42;;;;;;;-0.48;100.00;98363.97;4320720;81;44081;-83
2020/12/11 00:35:09;;;;;;;68.33;27.00;;;;;;;-0.68;100.00;98363.11;4364866;80;44126;-82
2020/12/11 00:41:11;;;;;;;70.65;28.67;;;;;;;-0.80;100.00;98372.43;4342592;80;44114;-84
2020/12/11 00:47:13;;;;;;;74.10;30.45;;;;;;;-0.76;100.00;98376.39;4345626;80;44540;-84
2020/12/11 00:53:15;;;;;;;71.05;28.60;;;;;;;-0.63;100.00;98370.02;4354646;80;44152;-83
2020/12/11 00:59:18;;;;;;;69.82;29.98;;;;;;;-0.65;100.00;98362.78;4353479;81;28602;-82
2020/12/11 01:05:20;;;;;;;66.80;29.05;;;;;;;-0.79;100.00;98367.47;4337607;82;44093;-83
2020/12/11 01:11:22;;;;;;;67.00;28.15;;;;;;;-0.87;100.00;98360.44;4343621;82;44151;-83
2020/12/11 01:17:24;;;;;;;67.85;28.45;;;;;;;-0.91;100.00;98371.83;4375178;80;44103;-84
2020/12/11 01:23:26;;;;;;;72.62;30.25;;;;;;;-1.01;100.00;98371.22;4370987;81;44080;-84
2020/12/11 01:29:29;;;;;;;78.30;31.50;;;;;;;-1.08;100.00;98361.05;4356905;80;42952;-83
2020/12/11 01:35:31;;;;;;;72.25;28.87;;;;;;;-1.15;100.00;98365.69;4376709;80;44084;-84
2020/12/11 01:41:33;;;;;;;75.60;31.42;;;;;;;-0.97;100.00;98361.98;4365048;80;44104;-84
2020/12/11 01:47:39;;;;;;;71.28;29.48;;;;;;;-1.19;100.00;98367.03;4374786;80;44076;-84
2020/12/11 01:53:45;;;;;;;76.05;31.80;;;;;;;-1.01;100.00;98357.55;4352803;80;28634;-85
2020/12/11 01:59:53;;;;;;;75.17;30.43;;;;;;;-1.24;100.00;98365.39;4354260;80;43643;-85
2020/12/11 02:05:55;;;;;;;72.97;30.35;;;;;;;-1.21;100.00;98361.59;4371549;80;44076;-83
2020/12/11 02:11:57;;;;;;;67.35;27.55;;;;;;;-1.33;100.00;98349.27;4354975;81;44125;-82
2020/12/11 02:17:59;;;;;;;73.00;29.55;;;;;;;-1.15;100.00;98344.58;4372421;80;44151;-83
2020/12/11 02:24:01;;;;;;;72.22;30.55;;;;;;;-1.05;100.00;98339.08;4374328;80;44081;-83
2020/12/11 02:30:05;;;;;;;74.67;31.68;;;;;;;-1.14;100.00;98329.59;4339535;81;44106;-83
2020/12/11 02:36:06;;;;;;;74.15;29.65;;;;;;;-1.48;100.00;98324.95;4260372;82;44182;-83
2020/12/11 02:42:09;;;;;;;75.05;30.12;;;;;;;-1.65;100.00;98312.81;4387369;80;43718;-85
2020/12/11 02:48:11;;;;;;;69.65;29.37;;;;;;;-1.71;100.00;98305.92;4364929;80;44120;-82
2020/12/11 02:54:14;;;;;;;77.22;28.57;;;;;;;-1.60;100.00;98317.09;4379958;80;43233;-82
2020/12/11 03:00:16;;;;;;;67.80;29.42;;;;;;;-1.68;100.00;98320.55;4380253;80;44076;-83
2020/12/11 03:06:18;;;;;;;72.35;27.10;;;;;;;-1.69;100.00;98310.52;4376743;80;44104;-83
2020/12/11 03:12:20;;;;;;;72.35;28.55;;;;;;;-1.63;100.00;98313.45;4385578;80;44115;-83
2020/12/11 03:18:23;;;;;;;64.30;27.60;;;;;;;-1.87;100.00;98305.96;4368351;80;43409;-82
2020/12/11 03:24:25;;;;;;;72.40;26.35;;;;;;;-2.02;100.00;98309.30;4382326;80;43737;-82
2020/12/11 03:30:31;;;;;;;72.22;28.85;;;;;;;-2.35;100.00;98309.32;4375644;80;44080;-82
2020/12/11 03:36:33;;;;;;;67.15;28.35;;;;;;;-2.04;100.00;98323.63;4360299;80;28641;-82
2020/12/11 03:42:35;;;;;;;68.67;28.83;;;;;;;-2.07;100.00;98328.72;4347634;80;44120;-83
2020/12/11 03:48:39;;;;;;;69.60;27.73;;;;;;;-2.12;100.00;98328.42;4367728;80;44104;-82
2020/12/11 03:54:41;;;;;;;65.00;27.85;;;;;;;-2.17;100.00;98326.28;4354197;80;43765;-83
2020/12/11 04:00:43;;;;;;;81.75;30.97;;;;;;;-2.21;100.00;98332.84;4358746;81;43036;-83
2020/12/11 04:06:45;;;;;;;91.45;33.67;;;;;;;-2.23;100.00;98345.37;4361287;80;44104;-82
2020/12/11 04:12:47;;;;;;;86.63;34.25;;;;;;;-2.43;100.00;98332.53;4353515;80;43556;-84
2020/12/11 04:18:49;;;;;;;83.90;31.68;;;;;;;-2.46;100.00;98334.19;4357844;80;43063;-84
2020/12/11 04:24:52;;;;;;;87.50;33.42;;;;;;;-2.47;100.00;98342.23;4358917;80;44120;-83
2020/12/11 04:30:54;;;;;;;85.87;34.85;;;;;;;-2.46;100.00;98333.35;4365494;80;43584;-83
2020/12/11 04:36:58;;;;;;;83.45;32.65;;;;;;;-2.56;100.00;98337.48;4351109;80;43208;-81
2020/12/11 04:43:02;;;;;;;86.40;31.20;;;;;;;-2.63;100.00;98342.58;4355059;80;43053;-83
2020/12/11 04:49:06;;;;;;;80.85;32.20;;;;;;;-2.69;100.00;98341.90;4390359;80;43139;-83
2020/12/11 04:55:14;;;;;;;83.72;30.05;;;;;;;-2.60;100.00;98346.19;4354558;80;43040;-83
2020/12/11 05:01:34;;;;;;;84.65;31.68;;;;;;;-2.55;100.00;98340.44;4350984;81;43042;-83
2020/12/11 05:07:37;;;;;;;78.83;28.50;;;;;;;-2.46;100.00;98349.15;4345479;80;43736;-83
2020/12/11 05:13:41;;;;;;;87.02;31.42;;;;;;;-2.29;100.00;98353.92;4369456;81;43398;-83
2020/12/11 05:19:52;;;;;;;85.87;32.00;;;;;;;-2.34;100.00;98363.66;4369791;80;43047;-83
2020/12/11 05:25:59;;;;;;;84.83;30.72;;;;;;;-2.25;100.00;98366.59;4341524;80;43051;-83
2020/12/11 05:32:01;;;;;;;84.05;30.92;;;;;;;-2.37;100.00;98388.17;4369924;80;43160;-82
2020/12/11 05:38:05;;;;;;;82.78;30.95;;;;;;;-2.29;100.00;98377.14;4367716;81;43035;-81
2020/12/11 05:44:28;;;;;;;84.58;32.65;;;;;;;-2.39;100.00;98372.05;4370416;80;28542;-83
2020/12/11 05:50:33;;;;;;;74.10;27.75;;;;;;;-2.44;100.00;98367.75;4365497;80;44160;-84
2020/12/11 05:56:35;;;;;;;78.47;30.32;;;;;;;-2.36;100.00;98372.70;4352749;80;43734;-85
2020/12/11 06:02:39;;;;;;;76.12;29.07;;;;;;;-2.35;100.00;98373.83;4338166;80;44093;-84
2020/12/11 06:08:44;;;;;;;70.57;27.62;;;;;;;-2.47;100.00;98374.67;4340410;80;44112;-84
2020/12/11 06:15:06;;;;;;;71.47;28.25;;;;;;;-2.29;100.00;98364.45;4360460;80;28599;-84
2020/12/11 06:21:10;;;;;;;74.87;28.67;;;;;;;-2.30;100.00;98381.23;4392746;80;44091;-84
2020/12/11 06:27:12;;;;;;;67.92;26.93;;;;;;;-2.26;100.00;98378.11;4355488;80;43680;-84
2020/12/11 06:33:18;;;;;;;74.42;25.70;;;;;;;-2.19;100.00;98373.01;4368064;81;43580;-84
2020/12/11 06:39:40;;;;;;;76.40;28.32;;;;;;;-1.99;100.00;98377.45;4316146;80;43654;-86
2020/12/11 06:45:43;;;;;;;80.28;29.40;;;;;;;-2.00;100.00;98386.35;4358971;80;42527;-83
2020/12/11 06:51:51;;;;;;;84.65;30.08;;;;;;;-1.73;100.00;98386.95;4357212;80;43036;-83
2020/12/11 06:57:53;;;;;;;72.92;27.22;;;;;;;-1.81;100.00;98388.31;4346681;80;44104;-84
2020/12/11 07:03:55;;;;;;;78.57;27.62;;;;;;;-1.86;100.00;98388.81;4360458;81;43702;-82
2020/12/11 07:09:57;;;;;;;72.30;26.57;;;;;;;-1.79;100.00;98390.77;4352811;80;43784;-86
2020/12/11 07:16:00;;;;;;;57.43;22.48;;;;;;;-1.87;100.00;98388.48;4357432;80;44090;-84
2020/12/11 07:22:03;;;;;;;73.15;26.85;;;;;;;-1.67;100.00;98394.69;4357521;80;43924;-84
2020/12/11 07:28:06;;;;;;;76.28;25.57;;;;;;;-1.75;100.00;98380.23;4355501;80;42716;-84
2020/12/11 07:34:20;;;;;;;73.30;25.77;;;;;;;-1.62;100.00;98373.09;4346596;80;43583;-85
2020/12/11 07:40:24;;;;;;;57.80;23.42;;;;;;;-1.57;100.00;98364.20;4365356;80;44112;-86
2020/12/11 07:46:27;;;;;;;62.20;22.65;;;;;;;-1.48;100.00;98356.59;4391673;80;43642;-86
2020/12/11 07:52:29;;;;;;;69.05;26.02;;;;;;;-1.53;100.00;98364.17;4316237;81;43249;-83
2020/12/11 07:58:31;;;;;;;64.37;24.30;;;;;;;-1.36;100.00;98360.98;4361198;80;43765;-85
2020/12/11 08:04:37;;;;;;;65.50;24.65;;;;;;;-1.29;100.00;98361.14;4369659;81;43733;-84
2020/12/11 08:10:43;;;;;;;;;;;;;;;-1.39;100.00;98352.09;4370001;80;28548;-85
2020/12/11 08:16:48;;;;;;;74.32;25.12;;;;;;;-1.17;100.00;98369.00;4340530;80;20245;-85
2020/12/11 08:22:51;;;;;;;66.62;25.43;;;;;;;-1.04;100.00;98374.22;4371667;80;42874;-86
2020/12/11 08:29:06;;;;;;;66.77;26.75;;;;;;;-0.88;100.00;98379.91;4368893;81;43639;-86
2020/12/11 08:35:17;;;;;;;74.67;26.30;;;;;;;-0.82;100.00;98378.39;4360402;80;28591;-85
2020/12/11 08:41:24;;;;;;;;;;;;;;;-0.64;100.00;98368.87;4374032;80;28621;-86
2020/12/11 08:53:51;;;;;;;72.17;25.90;;;;;;;-0.74;100.00;98391.03;4389052;80;43752;-86
2020/12/11 08:59:53;;;;;;;80.97;27.67;;;;;;;-0.41;100.00;98389.20;4296854;81;42989;-84
2020/12/11 09:05:55;;;;;;;93.30;32.42;;;;;;;-0.34;100.00;98367.67;4362333;80;44152;-85
2020/12/11 09:11:58;;;;;;;71.47;25.77;;;;;;;-0.44;100.00;98367.41;4354593;81;43558;-84
2020/12/11 09:18:00;;;;;;;63.45;27.15;;;;;;;-0.23;100.00;98367.25;4349439;80;43443;-82
2020/12/11 09:24:02;;;;;;;70.85;26.17;;;;;;;-0.57;100.00;98364.53;4338227;80;43744;-82
2020/12/11 09:30:18;;;;;;;76.28;27.15;;;;;;;-0.41;100.00;98362.27;4345832;80;44157;-85
2020/12/11 09:36:15;;;;;;;67.67;25.52;;;;;;;-0.13;100.00;98358.25;4387122;80;43043;-84
2020/12/11 09:48:45;;;;;;;66.95;26.15;;;;;;;-0.06;100.00;98348.63;4390195;80;42883;-85
2020/12/11 09:54:44;;;;;;;65.08;25.72;;;;;;;-0.01;100.00;98333.86;4390480;80;28632;-80
2020/12/11 10:00:50;;;;;;;64.70;26.30;;;;;;;0.10;100.00;98329.14;4389752;80;28617;-81
2020/12/11 10:06:51;;;;;;;77.37;28.17;;;;;;;0.09;100.00;98319.57;4384037;79;43685;-81
2020/12/11 10:12:53;;;;;;;55.80;22.55;;;;;;;-0.12;100.00;98319.77;4394102;80;44080;-81
2020/12/11 10:18:55;;;;;;;68.30;25.40;;;;;;;-0.01;100.00;98325.10;4398394;80;42869;-82
2020/12/11 10:24:59;;;;;;;64.58;26.05;;;;;;;0.16;100.00;98320.98;4367214;80;42875;-82
2020/12/11 10:31:01;;;;;;;60.75;24.25;;;;;;;0.24;100.00;98324.87;4363166;80;28630;-82
2020/12/11 10:37:12;;;;;;;67.00;25.85;;;;;;;0.11;100.00;98306.50;4361602;80;42913;-82
2020/12/11 10:43:14;;;;;;;62.95;26.37;;;;;;;-0.01;100.00;98300.83;4351950;81;43303;-84
2020/12/11 10:49:16;;;;;;;61.98;24.35;;;;;;;-0.02;100.00;98292.58;4381271;80;43653;-89
2020/12/11 10:55:18;;;;;;;74.85;29.42;;;;;;;-0.26;100.00;98290.16;4280123;81;28627;-85
2020/12/11 11:01:20;;;;;;;71.65;27.65;;;;;;;-0.05;100.00;98282.38;4296561;81;28645;-84
2020/12/11 11:07:29;;;;;;;81.80;29.25;;;;;;;0.04;100.00;98268.56;4345050;81;28571;-83
2020/12/11 11:32:17;;;;;;;77.90;28.87;;;;;;;0.20;100.00;98258.80;4366043;81;43717;-83
2020/12/11 11:38:19;;;;;;;61.28;24.67;;;;;;;0.21;100.00;98244.09;4360214;80;43686;-82
2020/12/11 11:51:03;;;;;;;63.33;26.87;;;;;;;0.18;100.00;98227.28;4395778;80;43290;-83
2020/12/11 11:56:58;;;;;;;51.80;21.23;;;;;;;0.11;100.00;98225.04;4308277;80;36237;-84
2020/12/11 12:03:01;;;;;;;65.92;24.98;;;;;;;0.23;100.00;98223.56;4377004;80;43773;-84
2020/12/11 12:09:03;;;;;;;73.17;27.00;;;;;;;0.24;100.00;98229.69;4320582;81;44097;-84
2020/12/11 12:15:10;;;;;;;71.67;24.82;;;;;;;0.19;100.00;98210.41;4397084;80;28530;-84
2020/12/11 12:21:26;;;;;;;61.40;22.90;;;;;;;0.26;100.00;98212.64;4380814;80;28577;-85
2020/12/11 12:45:41;;;;;;;52.70;21.10;;;;;;;0.30;100.00;98209.62;4334908;81;44144;-83
2020/12/11 12:51:43;;;;;;;52.43;21.70;;;;;;;0.17;100.00;98209.78;4305738;81;28661;-87
2020/12/11 12:57:48;;;;;;;49.35;20.23;;;;;;;0.02;100.00;98207.15;4329738;81;44429;-84
2020/12/11 13:10:12;;;;;;;47.10;18.62;;;;;;;0.05;100.00;98191.40;4357510;81;43747;-84
2020/12/11 13:16:14;;;;;;;49.50;18.67;;;;;;;0.30;100.00;98177.89;4315475;81;43824;-84
2020/12/11 13:22:38;;;;;;;49.40;20.02;;;;;;;0.43;100.00;98183.32;4327490;81;28546;-85
2020/12/11 13:28:34;;;;;;;51.70;20.48;;;;;;;0.24;100.00;98175.48;4337288;81;44060;-84
2020/12/11 13:34:36;;;;;;;52.62;21.75;;;;;;;0.03;100.00;98171.78;4308403;81;44109;-82
2020/12/11 13:40:38;;;;;;;46.53;18.87;;;;;;;-0.06;100.00;98171.56;4310015;81;43753;-82
2020/12/11 13:46:44;;;;;;;51.10;21.42;;;;;;;-0.25;100.00;98178.23;4301258;81;43601;-83
2020/12/11 13:52:46;;;;;;;;;;;;;;;-0.17;100.00;98168.38;4320091;81;28587;-83
2020/12/11 13:58:48;;;;;;;35.40;15.95;;;;;;;-0.09;100.00;98167.97;4284288;81;44425;-85
2020/12/11 14:04:50;;;;;;;41.75;16.85;;;;;;;-0.21;100.00;98160.52;4306711;81;44459;-83
2020/12/11 14:10:52;;;;;;;38.25;15.95;;;;;;;-0.19;100.00;98164.27;4292303;81;44424;-85
2020/12/11 14:16:56;;;;;;;40.43;15.98;;;;;;;-0.13;100.00;98168.00;4312357;81;44427;-85
2020/12/11 14:23:02;;;;;;;40.83;16.15;;;;;;;-0.12;100.00;98167.00;4315731;81;44484;-85
2020/12/11 14:29:02;;;;;;;39.45;16.85;;;;;;;-0.03;100.00;98164.58;4297633;81;44426;-85
2020/12/11 14:41:26;;;;;;;37.03;14.90;;;;;;;-0.02;100.00;98161.76;4474737;79;76885;-86
2020/12/11 14:47:29;;;;;;;45.05;16.48;;;;;;;-0.41;100.00;98168.14;4419666;79;43321;-87
2020/12/11 14:53:31;;;;;;;42.65;16.90;;;;;;;-0.34;100.00;98148.42;4399878;79;44437;-87
2020/12/11 14:59:34;;;;;;;40.00;15.25;;;;;;;-0.44;100.00;98146.88;4428628;80;44535;-87
2020/12/11 15:05:36;;;;;;;47.30;17.52;;;;;;;-0.30;100.00;98153.68;4410765;80;43768;-88
2020/12/11 15:11:38;;;;;;;40.50;16.20;;;;;;;-0.51;100.00;98144.66;4412770;80;44462;-90
2020/12/11 15:17:40;;;;;;;39.20;15.83;;;;;;;-0.47;100.00;98141.97;4428206;80;44458;-88
2020/12/11 15:23:42;;;;;;;37.73;14.87;;;;;;;-0.48;100.00;98129.77;4413297;80;44465;-88
2020/12/11 15:29:45;;;;;;;45.28;18.02;;;;;;;-0.24;100.00;98130.47;4422436;80;43767;-87
2020/12/11 15:35:47;;;;;;;37.60;15.50;;;;;;;-0.23;100.00;98138.72;4411568;80;44455;-87
2020/12/11 15:41:49;;;;;;;43.30;16.35;;;;;;;-0.36;100.00;98127.98;4314829;82;28571;-86
2020/12/11 15:47:51;;;;;;;44.93;17.45;;;;;;;-0.38;100.00;98118.91;4319883;81;28578;-85
2020/12/11 15:53:53;;;;;;;47.85;16.82;;;;;;;-0.42;100.00;98120.29;4313135;81;43758;-87
2020/12/11 15:59:57;;;;;;;49.55;17.15;;;;;;;-0.35;100.00;98115.92;4315215;81;43765;-87
2020/12/11 16:05:59;;;;;;;45.73;17.57;;;;;;;-0.29;100.00;98109.89;4320687;81;43753;-88
2020/12/11 16:12:04;;;;;;;48.78;17.95;;;;;;;-0.33;100.00;98112.59;4290732;82;43795;-87
2020/12/11 16:18:10;;;;;;;51.53;17.30;;;;;;;-0.28;100.00;98116.00;4304439;82;42892;-86
2020/12/11 16:24:13;;;;;;;48.13;17.70;;;;;;;-0.26;100.00;98106.55;4299572;81;43800;-88
2020/12/11 16:30:15;;;;;;;45.60;17.67;;;;;;;-0.09;100.00;98101.39;4308297;81;44057;-87
2020/12/11 16:36:17;;;;;;;55.55;19.85;;;;;;;-0.03;100.00;98105.11;4320079;80;44162;-86
2020/12/11 16:42:19;;;;;;;43.38;17.35;;;;;;;-0.19;100.00;98096.41;4411632;80;43733;-87
2020/12/11 16:48:21;;;;;;;56.20;20.15;;;;;;;0.01;100.00;98093.19;4405836;80;44099;-87
2020/12/11 16:54:24;;;;;;;50.80;18.75;;;;;;;0.02;100.00;98079.45;4399672;79;43701;-89
2020/12/11 17:00:29;;;;;;;57.70;20.25;;;;;;;0.01;100.00;98077.81;4396004;80;44102;-88
2020/12/11 17:06:38;;;;;;;54.27;20.15;;;;;;;-0.09;100.00;98067.55;4409624;80;44135;-84
2020/12/11 17:12:38;;;;;;;49.70;18.02;;;;;;;-0.15;100.00;98046.14;4406782;80;43665;-88
2020/12/11 17:18:40;;;;;;;61.90;20.70;;;;;;;-0.12;100.00;98042.31;4426513;79;44477;-87
2020/12/11 17:24:42;;;;;;;56.08;19.12;;;;;;;0.05;100.00;98044.71;4424388;79;44284;-89
2020/12/11 17:30:49;;;;;;;56.05;19.62;;;;;;;-0.04;100.00;98054.59;4399039;80;44091;-85
2020/12/11 17:36:48;;;;;;;61.33;20.12;;;;;;;0.06;100.00;98056.95;4410988;79;44441;-85
2020/12/11 17:42:50;;;;;;;60.70;21.10;;;;;;;0.10;100.00;98073.53;4423526;80;28553;-87
2020/12/11 17:48:53;;;;;;;64.42;24.18;;;;;;;0.34;100.00;98070.23;4416644;80;43763;-87
2020/12/11 17:54:56;;;;;;;67.17;24.45;;;;;;;0.23;100.00;98057.52;4422969;80;43802;-89
2020/12/11 18:01:00;;;;;;;59.60;21.80;;;;;;;0.30;100.00;98058.91;4364392;80;44129;-89
2020/12/11 18:07:03;;;;;;;61.53;21.10;;;;;;;0.33;100.00;98055.88;4371234;80;44502;-87
2020/12/11 18:13:05;;;;;;;63.68;22.75;;;;;;;0.26;100.00;98053.17;4417849;80;43661;-89
2020/12/11 18:19:07;;;;;;;70.05;25.12;;;;;;;0.42;100.00;98045.48;4407114;80;28544;-91
2020/12/11 18:25:09;;;;;;;68.57;23.20;;;;;;;0.27;100.00;98021.27;4407906;79;43857;-85
2020/12/11 18:31:13;;;;;;;61.60;21.55;;;;;;;0.25;100.00;98028.55;4391235;80;44467;-86
2020/12/11 18:37:16;;;;;;;60.43;22.50;;;;;;;0.26;100.00;98026.23;4395845;79;44072;-84
2020/12/11 18:43:18;;;;;;;56.88;21.37;;;;;;;0.45;100.00;97997.48;4432411;80;44087;-85
2020/12/11 18:49:20;;;;;;;55.70;21.10;;;;;;;0.47;100.00;97998.14;4404273;80;44097;-84
2020/12/11 18:55:27;;;;;;;59.08;20.80;;;;;;;0.50;100.00;98003.53;4403348;79;44147;-87
2020/12/11 19:01:27;;;;;;;47.83;18.07;;;;;;;0.45;100.00;98000.13;4396505;80;43734;-85
2020/12/11 19:13:43;;;;;;;51.37;21.15;;;;;;;0.65;100.00;98002.95;4609008;76;86530;-90
2020/12/11 19:19:45;;;;;;;55.08;19.25;;;;;;;0.49;100.00;98003.22;4503036;78;28592;-84
2020/12/11 19:25:49;;;;;;;53.52;19.20;;;;;;;0.54;100.00;97994.22;4510023;78;44116;-88
2020/12/11 19:31:52;;;;;;;48.85;17.57;;;;;;;0.53;100.00;97994.71;4505996;78;28616;-89
2020/12/11 19:37:54;;;;;;;50.95;18.87;;;;;;;0.63;100.00;97992.23;4494847;78;28543;-86
2020/12/11 19:43:58;;;;;;;57.20;20.52;;;;;;;0.64;100.00;97995.19;4485410;78;44220;-87
2020/12/11 19:50:01;;;;;;;47.08;17.55;;;;;;;0.48;100.00;97976.46;4505300;78;43740;-85
2020/12/11 19:56:07;;;;;;;50.83;18.75;;;;;;;0.47;100.00;97978.80;4490946;78;28571;-84
2020/12/11 20:02:09;;;;;;;41.05;16.25;;;;;;;0.66;100.00;97978.12;4491232;78;28558;-84
2020/12/11 20:14:35;;;;;;;51.73;19.75;;;;;;;0.71;100.00;97986.81;4503613;78;28677;-85
2020/12/11 20:20:40;;;;;;;49.00;18.60;;;;;;;0.64;100.00;97984.61;4489390;78;37092;-86
2020/12/11 20:26:42;;;;;;;49.00;20.12;;;;;;;0.76;100.00;97988.35;4490895;78;44452;-84
2020/12/11 20:32:44;;;;;;;66.82;23.30;;;;;;;0.75;100.00;97991.22;4503516;78;43758;-85
2020/12/11 20:38:47;;;;;;;62.17;21.57;;;;;;;0.71;100.00;97973.58;4501243;78;44436;-87
2020/12/11 20:44:49;;;;;;;52.90;19.92;;;;;;;0.64;100.00;97974.03;4513760;78;43991;-86
2020/12/11 20:50:53;;;;;;;50.98;19.02;;;;;;;0.67;100.00;97957.76;4507645;78;43752;-86
2020/12/11 20:56:55;;;;;;;50.88;20.08;;;;;;;0.86;100.00;97958.08;4478408;78;44503;-86
2020/12/11 21:03:00;;;;;;;57.78;21.00;;;;;;;0.69;100.00;97954.44;4440685;78;44079;-87
2020/12/11 21:09:10;;;;;;;54.55;22.10;;;;;;;0.67;100.00;97957.27;4317287;81;44085;-87
2020/12/11 21:15:10;;;;;;;48.10;19.92;;;;;;;0.66;100.00;97952.99;4375549;80;43792;-88
2020/12/11 21:21:13;;;;;;;51.92;21.87;;;;;;;0.78;100.00;97947.16;4357101;80;28543;-86
2020/12/11 21:27:15;;;;;;;53.87;21.02;;;;;;;0.66;100.00;97949.02;4368186;80;44167;-87
2020/12/11 21:39:36;;;;;;;51.37;20.05;;;;;;;0.51;100.00;97960.20;4335513;80;28597;-88
2020/12/11 21:45:42;;;;;;;56.60;21.45;;;;;;;0.59;100.00;97955.29;4341719;80;44202;-87
2020/12/11 21:51:45;;;;;;;53.52;21.42;;;;;;;0.76;100.00;97948.66;4347515;80;44143;-86
2020/12/11 21:57:53;;;;;;;50.95;19.87;;;;;;;0.59;100.00;97957.41;4346781;80;28563;-88
2020/12/11 22:03:57;;;;;;;59.80;21.75;;;;;;;0.68;100.00;97947.00;4346998;81;44472;-83
2020/12/11 22:10:00;;;;;;;63.65;23.25;;;;;;;0.62;100.00;97950.41;4342454;80;28612;-84
2020/12/11 22:16:04;;;;;;;66.97;24.05;;;;;;;0.49;100.00;97937.09;4381350;80;43738;-83
2020/12/11 22:22:07;;;;;;;57.25;20.65;;;;;;;0.67;100.00;97932.62;4385507;80;44111;-82
2020/12/11 22:28:09;;;;;;;60.55;21.87;;;;;;;0.65;100.00;97926.72;4312236;81;44151;-84
2020/12/11 22:34:11;;;;;;;56.63;23.65;;;;;;;0.60;100.00;97928.63;4387069;80;44235;-81
2020/12/11 22:40:13;;;;;;;68.87;25.45;;;;;;;0.72;100.00;97935.52;4401715;80;28549;-87
2020/12/11 22:46:15;;;;;;;64.87;24.90;;;;;;;0.43;100.00;97942.66;4383679;80;43828;-85
2020/12/11 22:52:19;;;;;;;63.50;23.22;;;;;;;0.47;100.00;97939.12;4398514;79;43697;-86
2020/12/11 22:58:21;;;;;;;60.28;21.37;;;;;;;0.51;100.00;97932.42;4389074;80;44281;-87
2020/12/11 23:04:23;;;;;;;59.98;23.22;;;;;;;0.73;100.00;97921.77;4388701;81;28605;-86
2020/12/11 23:10:27;;;;;;;54.88;21.40;;;;;;;0.79;100.00;97918.36;4388861;80;28550;-88
2020/12/11 23:16:29;;;;;;;61.60;22.93;;;;;;;0.68;100.00;97919.73;4369642;81;28545;-87
2020/12/11 23:22:31;;;;;;;59.10;21.70;;;;;;;0.69;100.00;97912.91;4367014;80;28642;-85
2020/12/11 23:28:33;;;;;;;59.23;23.70;;;;;;;0.49;100.00;97912.80;4343341;80;44114;-86
2020/12/11 23:34:36;;;;;;;54.63;23.05;;;;;;;0.58;100.00;97918.75;4331582;81;44172;-86
2020/12/11 23:40:38;;;;;;;53.90;21.00;;;;;;;0.64;100.00;97914.51;4365242;80;44128;-87
2020/12/11 23:46:46;;;;;;;63.00;22.50;;;;;;;0.63;100.00;97915.52;4367677;80;28547;-84
2020/12/11 23:52:49;;;;;;;61.80;24.15;;;;;;;0.54;100.00;97924.12;4359577;80;44553;-85
2020/12/11 23:58:51;;;;;;;55.10;22.13;;;;;;;0.50;100.00;97914.92;4369269;80;44080;-85
